»·PEaware :: N123RG KBUR-KSBA

N123RG :: KBUR-KSBA

FLIGHT INFORMATION

Flight Status: Arrived
Operator: Privately registered:
United States
More flights under this callsign
Pilot: Anonymous 23223 (23223)
Aircraft: CESSNA 172 SKYHAWK
(C172)
More flights by this aircraft type
Origin: KBUR Bob Hope-Burbank
United States
Destination: KSBA Santa Barbara Mun
United States
More flights between these airports :: More routes between these airports
Route: +VNY3 FIM V186 DEANO V27 KWANG
File this flight plan on PilotEdge
Remarks:
Altitude:
(Current/Filed)
6,000ft
Speed:
(Current/Filed)
135kts
Departed: 03-Feb-19 01:18 PM
Arrived: 03-Feb-19 02:12 PM
Distance/Time
Traveled:
75nm/0:54
Distance/Time
To Go:
Arrived

Flight Plot

Page will automatically refresh every two minutes.


Map Options




Map Legend


Flown Route
Filed Route
Departure Airport
Arrival Airport
Navaid (VOR, NDB)
Fix

Horizontal Profiles

Position Reports

Time Latitude Longitude Heading Altitude Ground
Speed
03-Feb-19 12:56 34.202259 -118.359586 147 781ft 0kts
03-Feb-19 12:57 34.202258 -118.359586 147 781ft 0kts
03-Feb-19 12:58 34.202258 -118.359585 147 781ft 0kts
03-Feb-19 12:59 34.202258 -118.359585 147 781ft 0kts
03-Feb-19 13:00 34.202257 -118.359585 147 781ft 0kts
03-Feb-19 13:02 34.202257 -118.359585 147 781ft 0kts
03-Feb-19 13:03 34.202257 -118.359584 147 781ft 0kts
03-Feb-19 13:04 34.202256 -118.359584 147 781ft 0kts
03-Feb-19 13:05 34.202256 -118.359584 147 781ft 0kts
03-Feb-19 13:06 34.202256 -118.359584 147 781ft 0kts
03-Feb-19 13:07 34.202255 -118.359583 147 781ft 0kts
03-Feb-19 13:08 34.202255 -118.359583 147 781ft 0kts
03-Feb-19 13:09 34.202255 -118.359583 147 781ft 0kts
03-Feb-19 13:10 34.202255 -118.359583 147 781ft 0kts
03-Feb-19 13:11 34.202254 -118.359582 147 781ft 0kts
03-Feb-19 13:12 34.202254 -118.359582 147 781ft 0kts
03-Feb-19 13:13 34.202058 -118.359352 116 781ft 7kts
03-Feb-19 13:14 34.207010 -118.359992 343 781ft 28kts
03-Feb-19 13:15 34.211808 -118.361200 32 781ft 0kts
03-Feb-19 13:16 34.211810 -118.361199 32 781ft 0kts
03-Feb-19 13:16 34.211834 -118.361179 36 781ft 0kts
03-Feb-19 13:18 34.203490 -118.357790 169 855ft 103kts
03-Feb-19 13:19 34.178802 -118.368575 235 1904ft 99kts
03-Feb-19 13:20 34.159647 -118.390964 227 2751ft 88kts
03-Feb-19 13:20 34.153959 -118.409191 284 3535ft 75kts
03-Feb-19 13:21 34.163375 -118.434227 294 4298ft 87kts
03-Feb-19 13:23 34.176322 -118.465639 295 5127ft 90kts
03-Feb-19 13:24 34.187372 -118.492512 294 5813ft 88kts
03-Feb-19 13:24 34.197427 -118.516897 295 6017ft 111kts
03-Feb-19 13:25 34.212412 -118.553112 295 5997ft 124kts
03-Feb-19 13:26 34.228016 -118.591082 295 5995ft 126kts
03-Feb-19 13:27 34.243650 -118.629229 295 5993ft 126kts
03-Feb-19 13:28 34.259301 -118.667467 295 5994ft 127kts
03-Feb-19 13:29 34.274955 -118.705757 295 5993ft 126kts
03-Feb-19 13:30 34.290569 -118.743991 295 5997ft 126kts
03-Feb-19 13:31 34.306127 -118.782139 295 5996ft 126kts
03-Feb-19 13:32 34.321708 -118.820388 295 5995ft 127kts
03-Feb-19 13:33 34.337295 -118.858693 295 5993ft 127kts
03-Feb-19 13:34 34.352318 -118.897357 279 5985ft 126kts
03-Feb-19 13:35 34.349855 -118.939795 267 5994ft 127kts
03-Feb-19 13:36 34.346958 -118.982361 267 5994ft 127kts
03-Feb-19 13:37 34.344093 -119.024916 267 5994ft 127kts
03-Feb-19 13:38 34.341205 -119.067646 267 5993ft 127kts
03-Feb-19 13:39 34.338314 -119.110199 267 5993ft 127kts
03-Feb-19 13:40 34.335411 -119.152723 267 5993ft 126kts
03-Feb-19 13:41 34.332493 -119.195207 267 5994ft 126kts
03-Feb-19 13:42 34.329563 -119.237684 267 5993ft 126kts
03-Feb-19 13:43 34.326615 -119.280225 267 5993ft 127kts
03-Feb-19 13:44 34.323641 -119.322898 267 5994ft 127kts
03-Feb-19 13:45 34.320661 -119.365424 267 5995ft 127kts
03-Feb-19 13:46 34.317663 -119.408013 267 5993ft 127kts
03-Feb-19 13:47 34.317131 -119.450744 274 5994ft 127kts
03-Feb-19 13:48 34.318900 -119.493085 274 5993ft 125kts
03-Feb-19 13:49 34.320647 -119.535208 274 5991ft 125kts
03-Feb-19 13:50 34.322414 -119.577381 274 5994ft 126kts
03-Feb-19 13:51 34.324195 -119.619806 274 5993ft 126kts
03-Feb-19 13:52 34.326126 -119.664536 274 5541ft 145kts
03-Feb-19 13:53 34.328417 -119.714561 274 4750ft 150kts
03-Feb-19 13:54 34.330714 -119.764685 274 4043ft 146kts
03-Feb-19 13:55 34.332742 -119.810674 274 3991ft 130kts
03-Feb-19 13:56 34.334598 -119.853974 274 3993ft 128kts
03-Feb-19 13:57 34.336435 -119.897013 274 3993ft 128kts
03-Feb-19 13:58 34.338213 -119.939401 274 3990ft 123kts
03-Feb-19 13:59 34.339937 -119.980642 274 3993ft 122kts
03-Feb-19 14:00 34.341638 -120.021557 274 3993ft 121kts
03-Feb-19 14:01 34.344417 -120.063336 296 3712ft 137kts
03-Feb-19 14:02 34.383064 -120.072838 353 2965ft 139kts
03-Feb-19 14:03 34.409200 -120.061445 62 2756ft 92kts
03-Feb-19 14:04 34.419330 -120.037425 50 2666ft 75kts
03-Feb-19 14:05 34.424678 -120.007249 88 2112ft 106kts
03-Feb-19 14:06 34.425374 -119.972005 87 1764ft 93kts
03-Feb-19 14:07 34.425837 -119.942192 87 1548ft 95kts
03-Feb-19 14:08 34.426482 -119.910165 88 946ft 93kts
03-Feb-19 14:09 34.426566 -119.879639 90 399ft 85kts
03-Feb-19 14:10 34.427504 -119.852210 86 49ft 81kts
03-Feb-19 14:11 34.427733 -119.838223 111 13ft 11kts
03-Feb-19 14:12 34.426348 -119.836933 177 13ft 6kts
03-Feb-19 14:13 34.426329 -119.836933 178 13ft 0kts

Navigation Log

Ident Type
Flight plan parsing failed, navigation log unavailable